sensor_id;sensor_type;location;lat;lon;timestamp;temperature;humidity
63013;DHT22;62113;45.624;11.700;2022-10-16T00:01:08;20.00;70.50
63013;DHT22;62113;45.624;11.700;2022-10-16T00:03:34;20.00;70.60
63013;DHT22;62113;45.624;11.700;2022-10-16T00:06:01;20.00;70.70
63013;DHT22;62113;45.624;11.700;2022-10-16T00:08:27;20.00;70.80
63013;DHT22;62113;45.624;11.700;2022-10-16T00:11:02;20.00;70.80
63013;DHT22;62113;45.624;11.700;2022-10-16T00:13:29;20.00;70.70
63013;DHT22;62113;45.624;11.700;2022-10-16T00:15:56;20.00;70.80
63013;DHT22;62113;45.624;11.700;2022-10-16T00:18:22;20.00;70.90
63013;DHT22;62113;45.624;11.700;2022-10-16T00:20:48;20.00;71.00
63013;DHT22;62113;45.624;11.700;2022-10-16T00:23:13;20.00;71.00
63013;DHT22;62113;45.624;11.700;2022-10-16T00:25:39;20.00;70.80
63013;DHT22;62113;45.624;11.700;2022-10-16T00:28:04;20.00;70.90
63013;DHT22;62113;45.624;11.700;2022-10-16T00:30:30;19.90;71.10
63013;DHT22;62113;45.624;11.700;2022-10-16T00:32:56;19.90;71.20
63013;DHT22;62113;45.624;11.700;2022-10-16T00:35:22;20.00;71.20
63013;DHT22;62113;45.624;11.700;2022-10-16T00:37:47;20.00;71.00
63013;DHT22;62113;45.624;11.700;2022-10-16T00:40:13;19.90;71.10
63013;DHT22;62113;45.624;11.700;2022-10-16T00:42:39;19.90;70.80
63013;DHT22;62113;45.624;11.700;2022-10-16T00:45:05;19.90;70.70
63013;DHT22;62113;45.624;11.700;2022-10-16T00:47:38;19.90;71.00
63013;DHT22;62113;45.624;11.700;2022-10-16T00:50:16;19.90;70.90
63013;DHT22;62113;45.624;11.700;2022-10-16T00:52:47;19.80;70.80
63013;DHT22;62113;45.624;11.700;2022-10-16T00:55:13;19.90;71.00
63013;DHT22;62113;45.624;11.700;2022-10-16T00:57:39;19.90;71.30
63013;DHT22;62113;45.624;11.700;2022-10-16T01:00:08;19.80;71.50
63013;DHT22;62113;45.624;11.700;2022-10-16T01:02:34;19.80;71.60
63013;DHT22;62113;45.624;11.700;2022-10-16T01:05:00;19.80;71.70
63013;DHT22;62113;45.624;11.700;2022-10-16T01:13:32;19.80;71.90
63013;DHT22;62113;45.624;11.700;2022-10-16T01:18:57;19.80;71.90
63013;DHT22;62113;45.624;11.700;2022-10-16T01:21:46;19.70;71.80
63013;DHT22;62113;45.624;11.700;2022-10-16T01:27:10;19.70;71.80
63013;DHT22;62113;45.624;11.700;2022-10-16T01:29:45;19.70;72.10
63013;DHT22;62113;45.624;11.700;2022-10-16T01:35:17;19.70;72.10
63013;DHT22;62113;45.624;11.700;2022-10-16T01:40:21;19.70;72.00
63013;DHT22;62113;45.624;11.700;2022-10-16T01:42:59;19.70;71.90
63013;DHT22;62113;45.624;11.700;2022-10-16T01:45:28;19.70;71.80
63013;DHT22;62113;45.624;11.700;2022-10-16T01:47:56;19.70;71.90
63013;DHT22;62113;45.624;11.700;2022-10-16T01:50:23;19.70;71.80
63013;DHT22;62113;45.624;11.700;2022-10-16T01:52:51;19.70;71.80
63013;DHT22;62113;45.624;11.700;2022-10-16T01:55:25;19.70;71.70
63013;DHT22;62113;45.624;11.700;2022-10-16T01:57:52;19.70;71.70
63013;DHT22;62113;45.624;11.700;2022-10-16T02:00:20;19.70;71.60
63013;DHT22;62113;45.624;11.700;2022-10-16T02:02:49;19.70;71.60
63013;DHT22;62113;45.624;11.700;2022-10-16T02:05:26;19.70;71.70
63013;DHT22;62113;45.624;11.700;2022-10-16T02:07:54;19.70;71.70
63013;DHT22;62113;45.624;11.700;2022-10-16T02:10:20;19.70;71.80
63013;DHT22;62113;45.624;11.700;2022-10-16T02:12:52;19.70;71.90
63013;DHT22;62113;45.624;11.700;2022-10-16T02:15:20;19.70;72.00
63013;DHT22;62113;45.624;11.700;2022-10-16T02:17:46;19.60;71.90
63013;DHT22;62113;45.624;11.700;2022-10-16T02:20:12;19.60;71.90
63013;DHT22;62113;45.624;11.700;2022-10-16T02:22:43;19.70;71.90
63013;DHT22;62113;45.624;11.700;2022-10-16T02:25:24;19.60;71.80
63013;DHT22;62113;45.624;11.700;2022-10-16T02:28:03;19.60;71.70
63013;DHT22;62113;45.624;11.700;2022-10-16T02:31:01;19.60;71.60
63013;DHT22;62113;45.624;11.700;2022-10-16T02:33:29;19.60;71.80
63013;DHT22;62113;45.624;11.700;2022-10-16T02:35:57;19.60;71.80
63013;DHT22;62113;45.624;11.700;2022-10-16T02:38:23;19.60;71.80
63013;DHT22;62113;45.624;11.700;2022-10-16T02:40:49;19.50;71.80
63013;DHT22;62113;45.624;11.700;2022-10-16T02:43:16;19.50;71.90
63013;DHT22;62113;45.624;11.700;2022-10-16T02:45:41;19.50;71.80
63013;DHT22;62113;45.624;11.700;2022-10-16T02:48:07;19.50;71.80
63013;DHT22;62113;45.624;11.700;2022-10-16T02:50:33;19.50;71.80
63013;DHT22;62113;45.624;11.700;2022-10-16T02:52:59;19.50;71.90
63013;DHT22;62113;45.624;11.700;2022-10-16T02:55:24;19.50;71.90
63013;DHT22;62113;45.624;11.700;2022-10-16T02:57:50;19.50;71.80
63013;DHT22;62113;45.624;11.700;2022-10-16T03:00:16;19.50;71.80
63013;DHT22;62113;45.624;11.700;2022-10-16T03:02:42;19.50;71.80
63013;DHT22;62113;45.624;11.700;2022-10-16T03:05:08;19.50;71.90
63013;DHT22;62113;45.624;11.700;2022-10-16T03:07:34;19.50;72.00
63013;DHT22;62113;45.624;11.700;2022-10-16T03:10:00;19.50;72.00
63013;DHT22;62113;45.624;11.700;2022-10-16T03:12:26;19.40;72.00
63013;DHT22;62113;45.624;11.700;2022-10-16T03:14:52;19.50;72.00
63013;DHT22;62113;45.624;11.700;2022-10-16T03:17:17;19.40;72.20
63013;DHT22;62113;45.624;11.700;2022-10-16T03:19:43;19.40;72.10
63013;DHT22;62113;45.624;11.700;2022-10-16T03:22:09;19.50;72.20
63013;DHT22;62113;45.624;11.700;2022-10-16T03:24:34;19.40;72.00
63013;DHT22;62113;45.624;11.700;2022-10-16T03:27:00;19.40;71.90
63013;DHT22;62113;45.624;11.700;2022-10-16T03:29:26;19.40;72.20
63013;DHT22;62113;45.624;11.700;2022-10-16T03:31:52;19.40;72.20
63013;DHT22;62113;45.624;11.700;2022-10-16T03:34:18;19.30;72.20
63013;DHT22;62113;45.624;11.700;2022-10-16T03:36:44;19.30;72.00
63013;DHT22;62113;45.624;11.700;2022-10-16T03:39:09;19.30;72.20
63013;DHT22;62113;45.624;11.700;2022-10-16T03:41:35;19.30;72.20
63013;DHT22;62113;45.624;11.700;2022-10-16T03:44:00;19.20;72.20
63013;DHT22;62113;45.624;11.700;2022-10-16T03:46:26;19.20;72.10
63013;DHT22;62113;45.624;11.700;2022-10-16T03:48:52;19.20;72.10
63013;DHT22;62113;45.624;11.700;2022-10-16T03:51:18;19.20;72.00
63013;DHT22;62113;45.624;11.700;2022-10-16T03:53:43;19.30;72.10
63013;DHT22;62113;45.624;11.700;2022-10-16T03:56:09;19.20;72.00
63013;DHT22;62113;45.624;11.700;2022-10-16T03:58:34;19.20;71.90
63013;DHT22;62113;45.624;11.700;2022-10-16T04:01:00;19.20;72.10
63013;DHT22;62113;45.624;11.700;2022-10-16T04:03:26;19.20;72.20
63013;DHT22;62113;45.624;11.700;2022-10-16T04:05:51;19.20;72.20
63013;DHT22;62113;45.624;11.700;2022-10-16T04:08:17;19.10;72.20
63013;DHT22;62113;45.624;11.700;2022-10-16T04:10:43;19.10;72.20
63013;DHT22;62113;45.624;11.700;2022-10-16T04:13:09;19.10;72.30
63013;DHT22;62113;45.624;11.700;2022-10-16T04:15:35;19.10;72.20
63013;DHT22;62113;45.624;11.700;2022-10-16T04:18:00;19.10;72.30
63013;DHT22;62113;45.624;11.700;2022-10-16T04:20:26;19.10;72.30
63013;DHT22;62113;45.624;11.700;2022-10-16T04:22:52;19.10;72.20
63013;DHT22;62113;45.624;11.700;2022-10-16T04:25:17;19.00;72.10
63013;DHT22;62113;45.624;11.700;2022-10-16T04:27:43;19.00;71.90
63013;DHT22;62113;45.624;11.700;2022-10-16T04:30:09;19.00;71.60
63013;DHT22;62113;45.624;11.700;2022-10-16T04:32:34;19.10;71.60
63013;DHT22;62113;45.624;11.700;2022-10-16T04:35:00;19.00;71.60
63013;DHT22;62113;45.624;11.700;2022-10-16T04:37:26;19.00;71.50
63013;DHT22;62113;45.624;11.700;2022-10-16T04:39:52;19.00;71.50
63013;DHT22;62113;45.624;11.700;2022-10-16T04:42:18;18.90;71.60
63013;DHT22;62113;45.624;11.700;2022-10-16T04:44:44;18.90;71.60
63013;DHT22;62113;45.624;11.700;2022-10-16T04:47:10;18.90;71.80
63013;DHT22;62113;45.624;11.700;2022-10-16T04:49:35;18.80;71.80
63013;DHT22;62113;45.624;11.700;2022-10-16T04:52:01;18.80;71.80
63013;DHT22;62113;45.624;11.700;2022-10-16T04:54:27;18.80;71.80
63013;DHT22;62113;45.624;11.700;2022-10-16T04:56:52;18.80;71.90
63013;DHT22;62113;45.624;11.700;2022-10-16T04:59:19;18.70;71.90
63013;DHT22;62113;45.624;11.700;2022-10-16T05:01:45;18.70;71.90
63013;DHT22;62113;45.624;11.700;2022-10-16T05:04:11;18.70;72.20
63013;DHT22;62113;45.624;11.700;2022-10-16T05:06:37;18.70;72.10
63013;DHT22;62113;45.624;11.700;2022-10-16T05:09:06;18.70;72.30
63013;DHT22;62113;45.624;11.700;2022-10-16T05:11:32;18.70;72.20
63013;DHT22;62113;45.624;11.700;2022-10-16T05:13:58;18.60;72.20
63013;DHT22;62113;45.624;11.700;2022-10-16T05:16:23;18.70;72.10
63013;DHT22;62113;45.624;11.700;2022-10-16T05:18:49;18.60;72.30
63013;DHT22;62113;45.624;11.700;2022-10-16T05:21:16;18.60;72.30
63013;DHT22;62113;45.624;11.700;2022-10-16T05:23:41;18.70;72.30
63013;DHT22;62113;45.624;11.700;2022-10-16T05:26:08;18.60;72.30
63013;DHT22;62113;45.624;11.700;2022-10-16T05:28:33;18.60;72.30
63013;DHT22;62113;45.624;11.700;2022-10-16T05:30:59;18.60;72.30
63013;DHT22;62113;45.624;11.700;2022-10-16T05:33:25;18.60;72.20
63013;DHT22;62113;45.624;11.700;2022-10-16T05:35:51;18.50;72.20
63013;DHT22;62113;45.624;11.700;2022-10-16T05:38:18;18.50;72.10
63013;DHT22;62113;45.624;11.700;2022-10-16T05:40:51;18.50;72.20
63013;DHT22;62113;45.624;11.700;2022-10-16T05:43:17;18.50;72.30
63013;DHT22;62113;45.624;11.700;2022-10-16T05:45:42;18.50;72.20
63013;DHT22;62113;45.624;11.700;2022-10-16T05:48:08;18.40;72.30
63013;DHT22;62113;45.624;11.700;2022-10-16T05:50:33;18.40;72.30
63013;DHT22;62113;45.624;11.700;2022-10-16T05:52:59;18.40;72.30
63013;DHT22;62113;45.624;11.700;2022-10-16T05:55:25;18.40;72.10
63013;DHT22;62113;45.624;11.700;2022-10-16T05:57:53;18.30;72.10
63013;DHT22;62113;45.624;11.700;2022-10-16T06:00:19;18.30;72.10
63013;DHT22;62113;45.624;11.700;2022-10-16T06:02:44;18.30;72.10
63013;DHT22;62113;45.624;11.700;2022-10-16T06:05:10;18.30;72.20
63013;DHT22;62113;45.624;11.700;2022-10-16T06:07:35;18.30;72.10
63013;DHT22;62113;45.624;11.700;2022-10-16T06:10:05;18.40;72.00
63013;DHT22;62113;45.624;11.700;2022-10-16T06:12:30;18.30;72.00
63013;DHT22;62113;45.624;11.700;2022-10-16T06:14:56;18.30;72.00
63013;DHT22;62113;45.624;11.700;2022-10-16T06:17:22;18.30;72.00
63013;DHT22;62113;45.624;11.700;2022-10-16T06:19:47;18.30;72.10
63013;DHT22;62113;45.624;11.700;2022-10-16T06:22:13;18.30;72.30
63013;DHT22;62113;45.624;11.700;2022-10-16T06:24:38;18.30;72.30
63013;DHT22;62113;45.624;11.700;2022-10-16T06:27:04;18.40;72.50
63013;DHT22;62113;45.624;11.700;2022-10-16T06:29:30;18.40;72.50
63013;DHT22;62113;45.624;11.700;2022-10-16T06:31:56;18.40;72.60
63013;DHT22;62113;45.624;11.700;2022-10-16T06:34:21;18.50;72.60
63013;DHT22;62113;45.624;11.700;2022-10-16T06:36:47;18.50;72.70
63013;DHT22;62113;45.624;11.700;2022-10-16T06:39:12;18.60;72.80
63013;DHT22;62113;45.624;11.700;2022-10-16T06:41:38;18.60;72.90
63013;DHT22;62113;45.624;11.700;2022-10-16T06:44:07;18.60;72.80
63013;DHT22;62113;45.624;11.700;2022-10-16T06:46:35;18.70;72.90
63013;DHT22;62113;45.624;11.700;2022-10-16T06:49:01;18.70;73.00
63013;DHT22;62113;45.624;11.700;2022-10-16T06:51:27;18.70;73.10
63013;DHT22;62113;45.624;11.700;2022-10-16T06:53:54;18.70;73.20
63013;DHT22;62113;45.624;11.700;2022-10-16T06:56:26;18.70;73.20
63013;DHT22;62113;45.624;11.700;2022-10-16T06:58:53;18.80;73.20
63013;DHT22;62113;45.624;11.700;2022-10-16T07:01:21;18.80;73.40
63013;DHT22;62113;45.624;11.700;2022-10-16T07:03:48;18.80;73.40
63013;DHT22;62113;45.624;11.700;2022-10-16T07:06:16;18.80;73.30
63013;DHT22;62113;45.624;11.700;2022-10-16T07:08:44;18.80;73.30
63013;DHT22;62113;45.624;11.700;2022-10-16T07:11:12;18.80;73.30
63013;DHT22;62113;45.624;11.700;2022-10-16T07:13:40;18.90;73.30
63013;DHT22;62113;45.624;11.700;2022-10-16T07:16:06;18.90;73.10
63013;DHT22;62113;45.624;11.700;2022-10-16T07:18:32;18.90;73.00
63013;DHT22;62113;45.624;11.700;2022-10-16T07:23:30;19.10;73.10
63013;DHT22;62113;45.624;11.700;2022-10-16T07:25:56;19.10;72.70
63013;DHT22;62113;45.624;11.700;2022-10-16T07:28:22;19.20;72.90
63013;DHT22;62113;45.624;11.700;2022-10-16T07:30:48;19.20;72.90
63013;DHT22;62113;45.624;11.700;2022-10-16T07:33:13;19.30;72.60
63013;DHT22;62113;45.624;11.700;2022-10-16T07:35:48;19.40;72.20
63013;DHT22;62113;45.624;11.700;2022-10-16T07:38:14;19.50;71.60
63013;DHT22;62113;45.624;11.700;2022-10-16T07:40:39;19.70;71.50
63013;DHT22;62113;45.624;11.700;2022-10-16T07:43:05;19.70;71.30
63013;DHT22;62113;45.624;11.700;2022-10-16T07:45:31;19.80;71.00
63013;DHT22;62113;45.624;11.700;2022-10-16T07:47:56;19.80;70.40
63013;DHT22;62113;45.624;11.700;2022-10-16T07:50:22;19.90;70.00
63013;DHT22;62113;45.624;11.700;2022-10-16T07:52:47;20.00;69.60
63013;DHT22;62113;45.624;11.700;2022-10-16T07:55:13;20.00;69.20
63013;DHT22;62113;45.624;11.700;2022-10-16T07:57:39;20.10;68.10
63013;DHT22;62113;45.624;11.700;2022-10-16T08:00:04;20.20;66.90
63013;DHT22;62113;45.624;11.700;2022-10-16T08:02:31;20.20;67.40
63013;DHT22;62113;45.624;11.700;2022-10-16T08:04:57;20.20;67.80
63013;DHT22;62113;45.624;11.700;2022-10-16T08:07:23;20.30;67.30
63013;DHT22;62113;45.624;11.700;2022-10-16T08:09:51;20.40;67.20
63013;DHT22;62113;45.624;11.700;2022-10-16T08:12:17;20.40;67.10
63013;DHT22;62113;45.624;11.700;2022-10-16T08:14:43;20.50;67.60
63013;DHT22;62113;45.624;11.700;2022-10-16T08:17:09;20.60;67.80
63013;DHT22;62113;45.624;11.700;2022-10-16T08:19:34;20.70;67.90
63013;DHT22;62113;45.624;11.700;2022-10-16T08:22:00;20.90;67.60
63013;DHT22;62113;45.624;11.700;2022-10-16T08:24:26;21.00;67.30
63013;DHT22;62113;45.624;11.700;2022-10-16T08:26:53;21.10;66.70
63013;DHT22;62113;45.624;11.700;2022-10-16T08:29:19;21.30;66.40
63013;DHT22;62113;45.624;11.700;2022-10-16T08:31:45;21.40;66.40
63013;DHT22;62113;45.624;11.700;2022-10-16T08:34:11;21.50;65.80
63013;DHT22;62113;45.624;11.700;2022-10-16T08:36:36;21.70;65.70
63013;DHT22;62113;45.624;11.700;2022-10-16T08:39:03;21.80;65.60
63013;DHT22;62113;45.624;11.700;2022-10-16T08:47:20;22.40;63.80
63013;DHT22;62113;45.624;11.700;2022-10-16T08:52:19;22.90;63.30
63013;DHT22;62113;45.624;11.700;2022-10-16T08:54:48;23.10;62.60
63013;DHT22;62113;45.624;11.700;2022-10-16T08:57:20;23.10;61.90
63013;DHT22;62113;45.624;11.700;2022-10-16T08:59:46;23.10;61.30
63013;DHT22;62113;45.624;11.700;2022-10-16T09:02:37;23.20;61.40
63013;DHT22;62113;45.624;11.700;2022-10-16T09:05:25;23.20;61.40
63013;DHT22;62113;45.624;11.700;2022-10-16T09:13:40;23.50;59.90
63013;DHT22;62113;45.624;11.700;2022-10-16T09:18:58;23.50;58.60
63013;DHT22;62113;45.624;11.700;2022-10-16T09:21:36;23.70;59.20
63013;DHT22;62113;45.624;11.700;2022-10-16T09:24:25;23.70;58.90
63013;DHT22;62113;45.624;11.700;2022-10-16T09:26:52;23.70;58.80
63013;DHT22;62113;45.624;11.700;2022-10-16T09:29:20;23.80;58.90
63013;DHT22;62113;45.624;11.700;2022-10-16T09:31:46;24.00;59.00
63013;DHT22;62113;45.624;11.700;2022-10-16T09:36:54;24.10;57.90
63013;DHT22;62113;45.624;11.700;2022-10-16T09:39:21;24.20;57.70
63013;DHT22;62113;45.624;11.700;2022-10-16T09:41:47;24.20;57.80
63013;DHT22;62113;45.624;11.700;2022-10-16T09:44:28;24.30;57.60
63013;DHT22;62113;45.624;11.700;2022-10-16T09:47:13;24.20;57.30
63013;DHT22;62113;45.624;11.700;2022-10-16T09:49:54;24.30;57.40
63013;DHT22;62113;45.624;11.700;2022-10-16T09:52:21;24.30;57.10
63013;DHT22;62113;45.624;11.700;2022-10-16T09:54:52;24.40;57.30
63013;DHT22;62113;45.624;11.700;2022-10-16T09:57:18;24.60;57.20
63013;DHT22;62113;45.624;11.700;2022-10-16T09:59:49;24.60;55.80
63013;DHT22;62113;45.624;11.700;2022-10-16T10:02:16;24.70;56.20
63013;DHT22;62113;45.624;11.700;2022-10-16T10:04:50;24.80;55.50
63013;DHT22;62113;45.624;11.700;2022-10-16T10:07:29;24.80;55.10
63013;DHT22;62113;45.624;11.700;2022-10-16T10:09:59;24.80;55.30
63013;DHT22;62113;45.624;11.700;2022-10-16T10:12:29;24.90;55.30
63013;DHT22;62113;45.624;11.700;2022-10-16T10:14:58;25.00;55.40
63013;DHT22;62113;45.624;11.700;2022-10-16T10:17:29;25.10;55.30
63013;DHT22;62113;45.624;11.700;2022-10-16T10:20:00;25.20;55.40
63013;DHT22;62113;45.624;11.700;2022-10-16T10:30:18;25.50;54.60
63013;DHT22;62113;45.624;11.700;2022-10-16T10:42:30;26.10;53.70
63013;DHT22;62113;45.624;11.700;2022-10-16T10:49:54;26.10;53.00
63013;DHT22;62113;45.624;11.700;2022-10-16T10:57:28;25.70;53.00
63013;DHT22;62113;45.624;11.700;2022-10-16T11:05:44;25.80;54.00
63013;DHT22;62113;45.624;11.700;2022-10-16T11:08:11;25.80;54.00
63013;DHT22;62113;45.624;11.700;2022-10-16T11:16:03;25.60;54.90
63013;DHT22;62113;45.624;11.700;2022-10-16T11:21:26;25.50;54.60
63013;DHT22;62113;45.624;11.700;2022-10-16T11:24:01;25.40;55.40
63013;DHT22;62113;45.624;11.700;2022-10-16T11:26:35;25.40;55.50
63013;DHT22;62113;45.624;11.700;2022-10-16T11:29:12;25.20;54.70
63013;DHT22;62113;45.624;11.700;2022-10-16T11:31:47;25.20;54.90
63013;DHT22;62113;45.624;11.700;2022-10-16T11:34:42;25.20;54.80
63013;DHT22;62113;45.624;11.700;2022-10-16T11:37:16;25.20;54.80
63013;DHT22;62113;45.624;11.700;2022-10-16T11:39:43;25.20;55.00
63013;DHT22;62113;45.624;11.700;2022-10-16T11:45:23;25.20;55.00
63013;DHT22;62113;45.624;11.700;2022-10-16T11:50:48;25.10;55.70
63013;DHT22;62113;45.624;11.700;2022-10-16T11:53:50;25.10;55.40
63013;DHT22;62113;45.624;11.700;2022-10-16T11:56:20;25.10;55.50
63013;DHT22;62113;45.624;11.700;2022-10-16T11:59:02;25.10;55.30
63013;DHT22;62113;45.624;11.700;2022-10-16T12:01:41;25.00;55.20
63013;DHT22;62113;45.624;11.700;2022-10-16T12:04:39;25.00;54.70
63013;DHT22;62113;45.624;11.700;2022-10-16T12:07:14;25.00;55.00
63013;DHT22;62113;45.624;11.700;2022-10-16T12:09:41;25.00;55.10
63013;DHT22;62113;45.624;11.700;2022-10-16T12:12:25;25.00;55.30
63013;DHT22;62113;45.624;11.700;2022-10-16T12:15:17;24.90;55.40
63013;DHT22;62113;45.624;11.700;2022-10-16T12:17:43;24.90;55.20
63013;DHT22;62113;45.624;11.700;2022-10-16T12:23:16;24.80;55.60
63013;DHT22;62113;45.624;11.700;2022-10-16T12:25:35;24.70;55.80
63013;DHT22;62113;45.624;11.700;2022-10-16T12:28:07;24.70;56.10
63013;DHT22;62113;45.624;11.700;2022-10-16T12:30:43;24.70;56.10
63013;DHT22;62113;45.624;11.700;2022-10-16T12:33:30;24.70;56.00
63013;DHT22;62113;45.624;11.700;2022-10-16T12:35:59;24.70;55.80
63013;DHT22;62113;45.624;11.700;2022-10-16T12:38:25;24.70;55.80
63013;DHT22;62113;45.624;11.700;2022-10-16T12:41:03;24.70;55.90
63013;DHT22;62113;45.624;11.700;2022-10-16T12:43:46;24.70;56.00
63013;DHT22;62113;45.624;11.700;2022-10-16T12:48:41;24.80;56.10
63013;DHT22;62113;45.624;11.700;2022-10-16T12:51:33;24.90;56.10
63013;DHT22;62113;45.624;11.700;2022-10-16T12:56:38;25.00;55.60
63013;DHT22;62113;45.624;11.700;2022-10-16T12:59:20;25.00;55.50
63013;DHT22;62113;45.624;11.700;2022-10-16T13:02:20;25.00;55.70
63013;DHT22;62113;45.624;11.700;2022-10-16T13:14:31;24.70;56.20
63013;DHT22;62113;45.624;11.700;2022-10-16T13:16:49;24.60;56.50
63013;DHT22;62113;45.624;11.700;2022-10-16T13:19:29;24.50;56.70
63013;DHT22;62113;45.624;11.700;2022-10-16T13:27:09;24.50;56.70
63013;DHT22;62113;45.624;11.700;2022-10-16T13:29:39;24.50;56.90
63013;DHT22;62113;45.624;11.700;2022-10-16T13:32:10;24.50;56.80
63013;DHT22;62113;45.624;11.700;2022-10-16T13:34:48;24.50;56.80
63013;DHT22;62113;45.624;11.700;2022-10-16T13:37:21;24.60;56.70
63013;DHT22;62113;45.624;11.700;2022-10-16T13:39:48;24.60;56.90
63013;DHT22;62113;45.624;11.700;2022-10-16T13:42:25;24.60;57.10
63013;DHT22;62113;45.624;11.700;2022-10-16T13:44:53;24.70;57.50
63013;DHT22;62113;45.624;11.700;2022-10-16T13:47:23;24.70;56.90
63013;DHT22;62113;45.624;11.700;2022-10-16T13:50:03;24.60;56.90
63013;DHT22;62113;45.624;11.700;2022-10-16T13:52:29;24.70;57.10
63013;DHT22;62113;45.624;11.700;2022-10-16T13:54:55;24.70;57.10
63013;DHT22;62113;45.624;11.700;2022-10-16T13:57:23;24.70;56.90
63013;DHT22;62113;45.624;11.700;2022-10-16T13:59:50;24.60;56.70
63013;DHT22;62113;45.624;11.700;2022-10-16T14:02:34;24.60;56.70
63013;DHT22;62113;45.624;11.700;2022-10-16T14:05:02;24.60;56.70
63013;DHT22;62113;45.624;11.700;2022-10-16T14:07:30;24.60;56.90
63013;DHT22;62113;45.624;11.700;2022-10-16T14:10:01;24.50;57.00
63013;DHT22;62113;45.624;11.700;2022-10-16T14:12:27;24.50;56.90
63013;DHT22;62113;45.624;11.700;2022-10-16T14:14:54;24.50;57.20
63013;DHT22;62113;45.624;11.700;2022-10-16T14:17:27;24.50;57.40
63013;DHT22;62113;45.624;11.700;2022-10-16T14:19:59;24.60;57.50
63013;DHT22;62113;45.624;11.700;2022-10-16T14:22:39;24.60;57.40
63013;DHT22;62113;45.624;11.700;2022-10-16T14:28:04;24.60;57.30
63013;DHT22;62113;45.624;11.700;2022-10-16T14:30:33;24.70;57.30
63013;DHT22;62113;45.624;11.700;2022-10-16T14:33:01;24.70;57.30
63013;DHT22;62113;45.624;11.700;2022-10-16T14:35:36;24.70;57.30
63013;DHT22;62113;45.624;11.700;2022-10-16T14:38:03;24.70;57.20
63013;DHT22;62113;45.624;11.700;2022-10-16T14:40:35;24.70;57.20
63013;DHT22;62113;45.624;11.700;2022-10-16T14:43:02;24.70;57.10
63013;DHT22;62113;45.624;11.700;2022-10-16T14:45:30;24.70;57.20
63013;DHT22;62113;45.624;11.700;2022-10-16T14:48:01;24.70;57.30
63013;DHT22;62113;45.624;11.700;2022-10-16T14:50:28;24.70;57.30
63013;DHT22;62113;45.624;11.700;2022-10-16T14:52:54;24.60;57.20
63013;DHT22;62113;45.624;11.700;2022-10-16T14:55:20;24.60;57.20
63013;DHT22;62113;45.624;11.700;2022-10-16T14:57:46;24.60;57.20
63013;DHT22;62113;45.624;11.700;2022-10-16T15:00:23;24.50;57.30
63013;DHT22;62113;45.624;11.700;2022-10-16T15:02:50;24.50;57.30
63013;DHT22;62113;45.624;11.700;2022-10-16T15:07:44;24.50;57.30
63013;DHT22;62113;45.624;11.700;2022-10-16T15:10:11;24.40;57.30
63013;DHT22;62113;45.624;11.700;2022-10-16T15:12:37;24.30;57.30
63013;DHT22;62113;45.624;11.700;2022-10-16T15:18:00;24.20;57.60
63013;DHT22;62113;45.624;11.700;2022-10-16T15:20:35;24.20;57.60
63013;DHT22;62113;45.624;11.700;2022-10-16T15:23:05;24.20;57.70
63013;DHT22;62113;45.624;11.700;2022-10-16T15:25:44;24.20;57.80
63013;DHT22;62113;45.624;11.700;2022-10-16T15:28:11;24.10;57.90
63013;DHT22;62113;45.624;11.700;2022-10-16T15:30:37;24.10;57.90
63013;DHT22;62113;45.624;11.700;2022-10-16T15:33:04;24.10;57.90
63013;DHT22;62113;45.624;11.700;2022-10-16T15:35:30;24.00;58.00
63013;DHT22;62113;45.624;11.700;2022-10-16T15:37:55;24.00;58.10
63013;DHT22;62113;45.624;11.700;2022-10-16T15:40:21;23.90;58.30
63013;DHT22;62113;45.624;11.700;2022-10-16T15:42:48;23.90;58.40
63013;DHT22;62113;45.624;11.700;2022-10-16T15:45:14;23.80;58.50
63013;DHT22;62113;45.624;11.700;2022-10-16T15:47:41;23.80;58.70
63013;DHT22;62113;45.624;11.700;2022-10-16T15:50:09;23.70;58.70
63013;DHT22;62113;45.624;11.700;2022-10-16T15:52:36;23.70;58.80
63013;DHT22;62113;45.624;11.700;2022-10-16T15:55:02;23.70;59.00
63013;DHT22;62113;45.624;11.700;2022-10-16T15:57:28;23.60;59.20
63013;DHT22;62113;45.624;11.700;2022-10-16T15:59:54;23.50;59.60
63013;DHT22;62113;45.624;11.700;2022-10-16T16:02:20;23.50;59.80
63013;DHT22;62113;45.624;11.700;2022-10-16T16:04:46;23.40;60.10
63013;DHT22;62113;45.624;11.700;2022-10-16T16:07:11;23.40;60.10
63013;DHT22;62113;45.624;11.700;2022-10-16T16:09:37;23.30;60.50
63013;DHT22;62113;45.624;11.700;2022-10-16T16:12:03;23.20;60.80
63013;DHT22;62113;45.624;11.700;2022-10-16T16:14:29;23.20;61.10
63013;DHT22;62113;45.624;11.700;2022-10-16T16:16:55;23.20;61.20
63013;DHT22;62113;45.624;11.700;2022-10-16T16:19:21;23.10;61.70
63013;DHT22;62113;45.624;11.700;2022-10-16T16:21:47;23.00;62.00
63013;DHT22;62113;45.624;11.700;2022-10-16T16:24:13;23.00;62.30
63013;DHT22;62113;45.624;11.700;2022-10-16T16:26:39;22.90;63.00
63013;DHT22;62113;45.624;11.700;2022-10-16T16:29:12;22.90;62.90
63013;DHT22;62113;45.624;11.700;2022-10-16T16:31:38;22.80;63.20
63013;DHT22;62113;45.624;11.700;2022-10-16T16:34:05;22.70;63.40
63013;DHT22;62113;45.624;11.700;2022-10-16T16:36:31;22.70;63.50
63013;DHT22;62113;45.624;11.700;2022-10-16T16:38:57;22.70;63.60
63013;DHT22;62113;45.624;11.700;2022-10-16T16:41:25;22.60;63.50
63013;DHT22;62113;45.624;11.700;2022-10-16T16:43:52;22.50;63.50
63013;DHT22;62113;45.624;11.700;2022-10-16T16:46:18;22.50;63.60
63013;DHT22;62113;45.624;11.700;2022-10-16T16:48:44;22.50;63.60
63013;DHT22;62113;45.624;11.700;2022-10-16T16:51:13;22.40;63.40
63013;DHT22;62113;45.624;11.700;2022-10-16T16:53:46;22.40;63.30
63013;DHT22;62113;45.624;11.700;2022-10-16T16:56:13;22.40;63.50
63013;DHT22;62113;45.624;11.700;2022-10-16T16:58:39;22.40;63.80
63013;DHT22;62113;45.624;11.700;2022-10-16T17:01:05;22.30;63.60
63013;DHT22;62113;45.624;11.700;2022-10-16T17:03:33;22.20;64.40
63013;DHT22;62113;45.624;11.700;2022-10-16T17:06:01;22.20;64.50
63013;DHT22;62113;45.624;11.700;2022-10-16T17:08:27;22.20;64.80
63013;DHT22;62113;45.624;11.700;2022-10-16T17:10:54;22.20;65.00
63013;DHT22;62113;45.624;11.700;2022-10-16T17:13:24;22.20;65.20
63013;DHT22;62113;45.624;11.700;2022-10-16T17:15:51;22.10;65.00
63013;DHT22;62113;45.624;11.700;2022-10-16T17:18:16;22.10;65.40
63013;DHT22;62113;45.624;11.700;2022-10-16T17:20:43;22.00;65.40
63013;DHT22;62113;45.624;11.700;2022-10-16T17:23:09;22.00;65.20